sensor_id;sensor_type;location;lat;lon;timestamp;pressure;altitude;pressure_sealevel;temperature;humidity
56831;BME280;42713;42.676;23.352;2024-03-02T00:00:19;94198.50;;;9.45;72.05
56831;BME280;42713;42.676;23.352;2024-03-02T00:02:50;94195.09;;;9.44;71.94
56831;BME280;42713;42.676;23.352;2024-03-02T00:05:18;94197.97;;;9.43;72.27
56831;BME280;42713;42.676;23.352;2024-03-02T00:07:45;94199.78;;;9.42;72.16
56831;BME280;42713;42.676;23.352;2024-03-02T00:10:16;94197.88;;;9.32;72.41
56831;BME280;42713;42.676;23.352;2024-03-02T00:12:42;94200.50;;;9.38;72.09
56831;BME280;42713;42.676;23.352;2024-03-02T00:17:55;94202.53;;;9.30;72.36
56831;BME280;42713;42.676;23.352;2024-03-02T00:20:24;94203.09;;;9.32;72.66
56831;BME280;42713;42.676;23.352;2024-03-02T00:23:03;94194.41;;;9.27;72.98
56831;BME280;42713;42.676;23.352;2024-03-02T00:28:21;94202.50;;;9.25;73.19
56831;BME280;42713;42.676;23.352;2024-03-02T00:30:55;94211.16;;;9.31;72.80
56831;BME280;42713;42.676;23.352;2024-03-02T00:33:22;94196.28;;;9.31;72.70
56831;BME280;42713;42.676;23.352;2024-03-02T00:35:48;94199.47;;;9.39;72.41
56831;BME280;42713;42.676;23.352;2024-03-02T00:38:14;94196.63;;;9.40;72.74
56831;BME280;42713;42.676;23.352;2024-03-02T00:40:44;94191.69;;;9.44;72.44
56831;BME280;42713;42.676;23.352;2024-03-02T00:46:15;94189.09;;;9.44;72.03
56831;BME280;42713;42.676;23.352;2024-03-02T00:48:54;94192.22;;;9.46;71.69
56831;BME280;42713;42.676;23.352;2024-03-02T00:51:21;94184.94;;;9.48;71.80
56831;BME280;42713;42.676;23.352;2024-03-02T00:53:47;94179.41;;;9.44;71.60
56831;BME280;42713;42.676;23.352;2024-03-02T00:56:13;94189.13;;;9.49;71.46
56831;BME280;42713;42.676;23.352;2024-03-02T00:58:39;94187.31;;;9.49;71.38
56831;BME280;42713;42.676;23.352;2024-03-02T01:01:05;94175.50;;;9.47;71.59
56831;BME280;42713;42.676;23.352;2024-03-02T01:03:31;94185.22;;;9.52;71.83
56831;BME280;42713;42.676;23.352;2024-03-02T01:05:57;94182.38;;;9.53;71.17
56831;BME280;42713;42.676;23.352;2024-03-02T01:08:23;94185.50;;;9.55;71.31
56831;BME280;42713;42.676;23.352;2024-03-02T01:10:49;94188.44;;;9.59;71.39
56831;BME280;42713;42.676;23.352;2024-03-02T01:13:15;94181.38;;;9.59;71.07
56831;BME280;42713;42.676;23.352;2024-03-02T01:15:40;94179.84;;;9.63;71.15
56831;BME280;42713;42.676;23.352;2024-03-02T01:18:05;94173.59;;;9.64;70.82
56831;BME280;42713;42.676;23.352;2024-03-02T01:20:31;94170.41;;;9.62;70.70
56831;BME280;42713;42.676;23.352;2024-03-02T01:22:58;94169.13;;;9.65;70.70
56831;BME280;42713;42.676;23.352;2024-03-02T01:25:23;94169.13;;;9.65;70.50
56831;BME280;42713;42.676;23.352;2024-03-02T01:27:50;94171.47;;;9.66;71.28
56831;BME280;42713;42.676;23.352;2024-03-02T01:30:15;94157.88;;;9.64;71.21
56831;BME280;42713;42.676;23.352;2024-03-02T01:32:41;94167.84;;;9.68;70.47
56831;BME280;42713;42.676;23.352;2024-03-02T01:35:07;94163.41;;;9.68;71.64
56831;BME280;42713;42.676;23.352;2024-03-02T01:37:33;94155.56;;;9.68;71.60
56831;BME280;42713;42.676;23.352;2024-03-02T01:39:58;94162.59;;;9.68;71.56
56831;BME280;42713;42.676;23.352;2024-03-02T01:42:24;94142.19;;;9.64;71.51
56831;BME280;42713;42.676;23.352;2024-03-02T01:44:50;94148.47;;;9.63;71.77
56831;BME280;42713;42.676;23.352;2024-03-02T01:47:16;94153.44;;;9.65;72.04
56831;BME280;42713;42.676;23.352;2024-03-02T01:49:42;94145.03;;;9.63;72.16
56831;BME280;42713;42.676;23.352;2024-03-02T01:52:08;94142.69;;;9.61;72.59
56831;BME280;42713;42.676;23.352;2024-03-02T01:54:33;94149.78;;;9.66;72.74
56831;BME280;42713;42.676;23.352;2024-03-02T01:56:59;94157.88;;;9.64;73.22
56831;BME280;42713;42.676;23.352;2024-03-02T01:59:25;94153.69;;;9.63;73.02
56831;BME280;42713;42.676;23.352;2024-03-02T02:01:50;94148.19;;;9.60;73.00
56831;BME280;42713;42.676;23.352;2024-03-02T02:04:16;94150.25;;;9.58;73.30
56831;BME280;42713;42.676;23.352;2024-03-02T02:06:44;94152.88;;;9.58;73.54
56831;BME280;42713;42.676;23.352;2024-03-02T02:09:09;94142.13;;;9.54;73.27
56831;BME280;42713;42.676;23.352;2024-03-02T02:11:34;94151.00;;;9.53;73.44
56831;BME280;42713;42.676;23.352;2024-03-02T02:14:00;94143.09;;;9.48;73.34
56831;BME280;42713;42.676;23.352;2024-03-02T02:16:25;94146.81;;;9.52;73.63
56831;BME280;42713;42.676;23.352;2024-03-02T02:18:51;94154.88;;;9.50;73.14
56831;BME280;42713;42.676;23.352;2024-03-02T02:21:16;94136.56;;;9.45;73.20
56831;BME280;42713;42.676;23.352;2024-03-02T02:23:42;94134.94;;;9.39;73.33
56831;BME280;42713;42.676;23.352;2024-03-02T02:26:12;94144.88;;;9.42;73.49
56831;BME280;42713;42.676;23.352;2024-03-02T02:28:37;94145.13;;;9.41;73.73
56831;BME280;42713;42.676;23.352;2024-03-02T02:31:03;94141.69;;;9.35;73.76
56831;BME280;42713;42.676;23.352;2024-03-02T02:33:28;94131.72;;;9.32;73.79
56831;BME280;42713;42.676;23.352;2024-03-02T02:35:54;94133.06;;;9.34;73.89
56831;BME280;42713;42.676;23.352;2024-03-02T02:38:20;94137.47;;;9.29;74.22
56831;BME280;42713;42.676;23.352;2024-03-02T02:40:46;94145.06;;;9.30;74.40
56831;BME280;42713;42.676;23.352;2024-03-02T02:43:11;94133.00;;;9.29;74.15
56831;BME280;42713;42.676;23.352;2024-03-02T02:45:37;94141.41;;;9.31;74.85
56831;BME280;42713;42.676;23.352;2024-03-02T02:48:02;94127.25;;;9.27;74.38
56831;BME280;42713;42.676;23.352;2024-03-02T02:50:30;94143.97;;;9.26;74.60
56831;BME280;42713;42.676;23.352;2024-03-02T02:52:55;94132.47;;;9.27;74.35
56831;BME280;42713;42.676;23.352;2024-03-02T02:55:21;94136.44;;;9.30;74.36
56831;BME280;42713;42.676;23.352;2024-03-02T02:57:46;94134.59;;;9.30;74.50
56831;BME280;42713;42.676;23.352;2024-03-02T03:00:14;94141.41;;;9.31;74.58
56831;BME280;42713;42.676;23.352;2024-03-02T03:02:41;94142.19;;;9.32;74.62
56831;BME280;42713;42.676;23.352;2024-03-02T03:05:11;94149.25;;;9.31;74.93
56831;BME280;42713;42.676;23.352;2024-03-02T03:07:37;94144.00;;;9.31;74.86
56831;BME280;42713;42.676;23.352;2024-03-02T03:10:05;94140.59;;;9.31;74.61
56831;BME280;42713;42.676;23.352;2024-03-02T03:12:32;94144.78;;;9.32;74.94
56831;BME280;42713;42.676;23.352;2024-03-02T03:14:57;94149.25;;;9.31;74.81
56831;BME280;42713;42.676;23.352;2024-03-02T03:17:23;94151.06;;;9.31;74.92
56831;BME280;42713;42.676;23.352;2024-03-02T03:19:49;94145.31;;;9.29;75.13
56831;BME280;42713;42.676;23.352;2024-03-02T03:22:15;94147.38;;;9.27;74.97
56831;BME280;42713;42.676;23.352;2024-03-02T03:24:40;94143.72;;;9.28;75.58
56831;BME280;42713;42.676;23.352;2024-03-02T03:27:06;94146.34;;;9.28;75.28
56831;BME280;42713;42.676;23.352;2024-03-02T03:29:32;94150.25;;;9.25;75.06
56831;BME280;42713;42.676;23.352;2024-03-02T03:31:57;94146.34;;;9.28;75.17
56831;BME280;42713;42.676;23.352;2024-03-02T03:34:22;94144.47;;;9.23;75.15
56831;BME280;42713;42.676;23.352;2024-03-02T03:36:48;94150.25;;;9.25;75.42
56831;BME280;42713;42.676;23.352;2024-03-02T03:39:13;94145.25;;;9.24;75.43
56831;BME280;42713;42.676;23.352;2024-03-02T03:41:40;94140.28;;;9.22;75.45
56831;BME280;42713;42.676;23.352;2024-03-02T03:44:06;94150.72;;;9.22;75.74
56831;BME280;42713;42.676;23.352;2024-03-02T03:46:31;94148.13;;;9.22;75.58
56831;BME280;42713;42.676;23.352;2024-03-02T03:48:56;94153.63;;;9.26;75.89
56831;BME280;42713;42.676;23.352;2024-03-02T03:51:22;94145.78;;;9.26;74.94
56831;BME280;42713;42.676;23.352;2024-03-02T03:53:48;94148.88;;;9.23;75.25
56831;BME280;42713;42.676;23.352;2024-03-02T03:56:14;94141.34;;;9.26;75.42
56831;BME280;42713;42.676;23.352;2024-03-02T03:58:39;94137.41;;;9.24;75.55
56831;BME280;42713;42.676;23.352;2024-03-02T04:01:04;94146.56;;;9.26;76.01
56831;BME280;42713;42.676;23.352;2024-03-02T04:03:30;94147.09;;;9.23;75.65
56831;BME280;42713;42.676;23.352;2024-03-02T04:05:56;94143.44;;;9.24;75.76
56831;BME280;42713;42.676;23.352;2024-03-02T04:08:21;94144.75;;;9.27;75.81
56831;BME280;42713;42.676;23.352;2024-03-02T04:10:46;94142.63;;;9.24;75.53
56831;BME280;42713;42.676;23.352;2024-03-02T04:13:12;94141.06;;;9.23;75.35
56831;BME280;42713;42.676;23.352;2024-03-02T04:15:37;94151.03;;;9.26;75.25
56831;BME280;42713;42.676;23.352;2024-03-02T04:18:03;94137.69;;;9.27;75.41
56831;BME280;42713;42.676;23.352;2024-03-02T04:20:29;94141.88;;;9.28;75.14
56831;BME280;42713;42.676;23.352;2024-03-02T04:22:55;94139.53;;;9.27;75.21
56831;BME280;42713;42.676;23.352;2024-03-02T04:25:20;94146.34;;;9.28;75.46
56831;BME280;42713;42.676;23.352;2024-03-02T04:27:46;94145.78;;;9.26;75.75
56831;BME280;42713;42.676;23.352;2024-03-02T04:30:12;94143.66;;;9.23;75.43
56831;BME280;42713;42.676;23.352;2024-03-02T04:32:38;94157.81;;;9.27;75.96
56831;BME280;42713;42.676;23.352;2024-03-02T04:35:05;94158.59;;;9.27;76.06
56831;BME280;42713;42.676;23.352;2024-03-02T04:37:34;94156.00;;;9.27;75.98
56831;BME280;42713;42.676;23.352;2024-03-02T04:39:59;94155.47;;;9.25;76.41
56831;BME280;42713;42.676;23.352;2024-03-02T04:42:25;94159.63;;;9.26;76.61
56831;BME280;42713;42.676;23.352;2024-03-02T04:44:50;94165.19;;;9.30;76.44
56831;BME280;42713;42.676;23.352;2024-03-02T04:47:16;94157.09;;;9.31;76.39
56831;BME280;42713;42.676;23.352;2024-03-02T04:49:41;94155.75;;;9.29;76.48
56831;BME280;42713;42.676;23.352;2024-03-02T04:52:06;94157.84;;;9.32;76.61
56831;BME280;42713;42.676;23.352;2024-03-02T04:54:32;94162.56;;;9.30;76.67
56831;BME280;42713;42.676;23.352;2024-03-02T04:56:57;94162.25;;;9.26;77.06
56831;BME280;42713;42.676;23.352;2024-03-02T04:59:23;94159.63;;;9.26;77.59
56831;BME280;42713;42.676;23.352;2024-03-02T05:01:49;94153.59;;;9.21;77.93
56831;BME280;42713;42.676;23.352;2024-03-02T05:04:14;94167.19;;;9.23;78.54
56831;BME280;42713;42.676;23.352;2024-03-02T05:06:41;94157.47;;;9.18;79.16
56831;BME280;42713;42.676;23.352;2024-03-02T05:09:09;94171.34;;;9.18;79.30
56831;BME280;42713;42.676;23.352;2024-03-02T05:11:35;94164.53;;;9.17;79.81
56831;BME280;42713;42.676;23.352;2024-03-02T05:14:04;94163.22;;;9.15;79.99
56831;BME280;42713;42.676;23.352;2024-03-02T05:16:39;94172.56;;;9.11;80.26
56831;BME280;42713;42.676;23.352;2024-03-02T05:19:07;94177.78;;;9.11;80.20
56831;BME280;42713;42.676;23.352;2024-03-02T05:21:33;94183.28;;;9.09;80.40
56831;BME280;42713;42.676;23.352;2024-03-02T05:23:58;94185.31;;;9.07;81.01
56831;BME280;42713;42.676;23.352;2024-03-02T05:26:24;94180.59;;;9.04;81.36
56831;BME280;42713;42.676;23.352;2024-03-02T05:28:50;94186.06;;;9.02;81.74
56831;BME280;42713;42.676;23.352;2024-03-02T05:31:15;94185.03;;;9.03;81.70
56831;BME280;42713;42.676;23.352;2024-03-02T05:33:42;94188.19;;;9.06;81.92
56831;BME280;42713;42.676;23.352;2024-03-02T05:36:07;94185.50;;;9.00;81.84
56831;BME280;42713;42.676;23.352;2024-03-02T05:38:36;94193.84;;;8.97;82.02
56831;BME280;42713;42.676;23.352;2024-03-02T05:41:02;94206.97;;;9.02;82.38
56831;BME280;42713;42.676;23.352;2024-03-02T05:43:28;94204.59;;;9.01;82.21
56831;BME280;42713;42.676;23.352;2024-03-02T05:45:54;94205.88;;;8.98;82.21
56831;BME280;42713;42.676;23.352;2024-03-02T05:48:19;94206.13;;;8.97;82.28
56831;BME280;42713;42.676;23.352;2024-03-02T05:50:45;94206.59;;;8.94;82.47
56831;BME280;42713;42.676;23.352;2024-03-02T05:53:10;94209.47;;;8.92;82.68
56831;BME280;42713;42.676;23.352;2024-03-02T05:55:35;94208.66;;;8.92;82.97
56831;BME280;42713;42.676;23.352;2024-03-02T05:58:01;94215.97;;;8.90;83.24
56831;BME280;42713;42.676;23.352;2024-03-02T06:00:45;94214.59;;;8.87;82.95
56831;BME280;42713;42.676;23.352;2024-03-02T06:03:11;94209.91;;;8.84;83.41
56831;BME280;42713;42.676;23.352;2024-03-02T06:05:36;94206.25;;;8.85;83.87
56831;BME280;42713;42.676;23.352;2024-03-02T06:08:02;94212.72;;;8.82;84.11
56831;BME280;42713;42.676;23.352;2024-03-02T06:10:27;94208.06;;;8.84;84.24
56831;BME280;42713;42.676;23.352;2024-03-02T06:12:53;94214.38;;;8.88;83.83
56831;BME280;42713;42.676;23.352;2024-03-02T06:15:18;94221.97;;;8.90;84.36
56831;BME280;42713;42.676;23.352;2024-03-02T06:17:44;94214.38;;;8.88;84.40
56831;BME280;42713;42.676;23.352;2024-03-02T06:20:09;94216.00;;;8.95;84.47
56831;BME280;42713;42.676;23.352;2024-03-02T06:22:36;94215.53;;;8.98;84.49
56831;BME280;42713;42.676;23.352;2024-03-02T06:25:01;94214.00;;;9.02;84.24
56831;BME280;42713;42.676;23.352;2024-03-02T06:27:27;94214.00;;;9.02;84.25
56831;BME280;42713;42.676;23.352;2024-03-02T06:29:52;94210.59;;;9.01;83.92
56831;BME280;42713;42.676;23.352;2024-03-02T06:32:18;94208.00;;;9.01;83.75
56831;BME280;42713;42.676;23.352;2024-03-02T06:34:44;94216.13;;;9.05;83.02
56831;BME280;42713;42.676;23.352;2024-03-02T06:37:09;94219.03;;;9.09;82.96
56831;BME280;42713;42.676;23.352;2024-03-02T06:39:34;94219.03;;;9.09;82.88
56831;BME280;42713;42.676;23.352;2024-03-02T06:42:01;94223.78;;;9.12;82.83
56831;BME280;42713;42.676;23.352;2024-03-02T06:44:26;94220.63;;;9.10;82.48
56831;BME280;42713;42.676;23.352;2024-03-02T06:46:52;94229.00;;;9.12;82.84
56831;BME280;42713;42.676;23.352;2024-03-02T06:49:17;94226.94;;;9.14;82.98
56831;BME280;42713;42.676;23.352;2024-03-02T06:51:44;94226.69;;;9.15;82.46
56831;BME280;42713;42.676;23.352;2024-03-02T06:54:09;94229.06;;;9.17;82.83
56831;BME280;42713;42.676;23.352;2024-03-02T06:56:35;94236.16;;;9.22;82.32
56831;BME280;42713;42.676;23.352;2024-03-02T06:59:00;94228.81;;;9.18;81.84
56831;BME280;42713;42.676;23.352;2024-03-02T07:01:26;94233.25;;;9.18;82.22
56831;BME280;42713;42.676;23.352;2024-03-02T07:03:53;94236.16;;;9.22;82.17
56831;BME280;42713;42.676;23.352;2024-03-02T07:06:18;94235.63;;;9.19;81.67
56831;BME280;42713;42.676;23.352;2024-03-02T07:08:44;94241.09;;;9.18;81.98
56831;BME280;42713;42.676;23.352;2024-03-02T07:11:09;94235.81;;;9.13;81.88
56831;BME280;42713;42.676;23.352;2024-03-02T07:13:53;94243.88;;;9.11;82.34
56831;BME280;42713;42.676;23.352;2024-03-02T07:16:18;94249.09;;;9.11;82.29
56831;BME280;42713;42.676;23.352;2024-03-02T07:18:55;94246.75;;;9.10;81.99
56831;BME280;42713;42.676;23.352;2024-03-02T07:21:22;94240.97;;;9.08;81.74
56831;BME280;42713;42.676;23.352;2024-03-02T07:23:48;94236.78;;;9.07;82.66
56831;BME280;42713;42.676;23.352;2024-03-02T07:26:14;94247.03;;;9.13;83.02
56831;BME280;42713;42.676;23.352;2024-03-02T07:28:41;94248.06;;;9.12;82.67
56831;BME280;42713;42.676;23.352;2024-03-02T07:31:06;94252.25;;;9.13;82.39
56831;BME280;42713;42.676;23.352;2024-03-02T07:33:32;94254.09;;;9.13;82.79
56831;BME280;42713;42.676;23.352;2024-03-02T07:35:59;94245.97;;;9.09;83.22
56831;BME280;42713;42.676;23.352;2024-03-02T07:38:25;94247.28;;;9.12;82.79
56831;BME280;42713;42.676;23.352;2024-03-02T07:40:50;94258.28;;;9.14;82.78
56831;BME280;42713;42.676;23.352;2024-03-02T07:43:17;94250.69;;;9.12;82.71
56831;BME280;42713;42.676;23.352;2024-03-02T07:45:45;94254.88;;;9.13;82.35
56831;BME280;42713;42.676;23.352;2024-03-02T07:48:10;94257.50;;;9.13;82.42
56831;BME280;42713;42.676;23.352;2024-03-02T07:50:36;94253.28;;;9.12;82.56
56831;BME280;42713;42.676;23.352;2024-03-02T07:53:03;94258.78;;;9.11;83.06
56831;BME280;42713;42.676;23.352;2024-03-02T07:55:29;94261.66;;;9.09;82.77
56831;BME280;42713;42.676;23.352;2024-03-02T07:57:56;94260.84;;;9.09;83.08
56831;BME280;42713;42.676;23.352;2024-03-02T08:00:21;94256.66;;;9.08;83.15
56831;BME280;42713;42.676;23.352;2024-03-02T08:02:47;94259.03;;;9.09;82.83
56831;BME280;42713;42.676;23.352;2024-03-02T08:05:13;94259.03;;;9.09;83.25
56831;BME280;42713;42.676;23.352;2024-03-02T08:07:39;94263.22;;;9.10;83.25
56831;BME280;42713;42.676;23.352;2024-03-02T08:10:05;94268.25;;;9.17;85.02
56831;BME280;42713;42.676;23.352;2024-03-02T08:12:31;94272.81;;;9.27;84.74
56831;BME280;42713;42.676;23.352;2024-03-02T08:14:56;94269.19;;;9.33;84.67
56831;BME280;42713;42.676;23.352;2024-03-02T08:17:22;94275.53;;;9.37;83.47
56831;BME280;42713;42.676;23.352;2024-03-02T08:19:47;94274.84;;;9.47;82.66
56831;BME280;42713;42.676;23.352;2024-03-02T08:22:14;94272.50;;;9.50;82.37
56831;BME280;42713;42.676;23.352;2024-03-02T08:24:40;94274.91;;;9.52;82.56
56831;BME280;42713;42.676;23.352;2024-03-02T08:27:06;94273.91;;;9.58;82.99
56831;BME280;42713;42.676;23.352;2024-03-02T08:29:31;94262.91;;;9.56;82.35
56831;BME280;42713;42.676;23.352;2024-03-02T08:31:56;94274.25;;;9.67;85.45
56831;BME280;42713;42.676;23.352;2024-03-02T08:34:22;94267.75;;;9.70;85.31
56831;BME280;42713;42.676;23.352;2024-03-02T08:36:48;94265.97;;;9.75;85.27
56831;BME280;42713;42.676;23.352;2024-03-02T08:39:14;94259.94;;;9.75;83.22
56831;BME280;42713;42.676;23.352;2024-03-02T08:41:46;94267.84;;;9.80;83.41
56831;BME280;42713;42.676;23.352;2024-03-02T08:44:13;94270.50;;;9.85;83.47
56831;BME280;42713;42.676;23.352;2024-03-02T08:46:40;94263.72;;;9.89;82.92
56831;BME280;42713;42.676;23.352;2024-03-02T08:49:06;94271.13;;;9.97;84.63
56831;BME280;42713;42.676;23.352;2024-03-02T08:51:34;94264.38;;;10.02;84.95
56831;BME280;42713;42.676;23.352;2024-03-02T08:56:38;94254.97;;;10.06;82.64
56831;BME280;42713;42.676;23.352;2024-03-02T08:59:32;94243.66;;;10.00;81.93
56831;BME280;42713;42.676;23.352;2024-03-02T09:02:09;94244.03;;;10.14;82.67
56831;BME280;42713;42.676;23.352;2024-03-02T09:04:55;94245.88;;;10.13;82.08
56831;BME280;42713;42.676;23.352;2024-03-02T09:07:44;94247.53;;;10.30;81.18
56831;BME280;42713;42.676;23.352;2024-03-02T09:10:22;94246.78;;;10.35;81.40
56831;BME280;42713;42.676;23.352;2024-03-02T09:13:16;94269.25;;;10.58;84.14
56831;BME280;42713;42.676;23.352;2024-03-02T09:16:22;94274.81;;;10.72;87.62
56831;BME280;42713;42.676;23.352;2024-03-02T09:19:06;94258.81;;;10.68;85.08
56831;BME280;42713;42.676;23.352;2024-03-02T09:22:07;94240.94;;;10.60;83.00
56831;BME280;42713;42.676;23.352;2024-03-02T09:25:22;94276.97;;;10.80;80.89
56831;BME280;42713;42.676;23.352;2024-03-02T09:28:30;94257.47;;;10.61;80.20
56831;BME280;42713;42.676;23.352;2024-03-02T09:30:57;94278.50;;;10.76;80.19
56831;BME280;42713;42.676;23.352;2024-03-02T09:33:23;94291.88;;;10.80;81.41
56831;BME280;42713;42.676;23.352;2024-03-02T09:35:49;94271.69;;;10.75;80.19
56831;BME280;42713;42.676;23.352;2024-03-02T09:38:14;94281.88;;;10.71;79.12
56831;BME280;42713;42.676;23.352;2024-03-02T09:40:41;94265.34;;;10.66;78.47
56831;BME280;42713;42.676;23.352;2024-03-02T09:43:07;94274.78;;;10.67;77.76
56831;BME280;42713;42.676;23.352;2024-03-02T09:45:33;94275.53;;;10.62;78.39
56831;BME280;42713;42.676;23.352;2024-03-02T09:47:59;94283.69;;;10.66;78.13
56831;BME280;42713;42.676;23.352;2024-03-02T09:50:25;94288.63;;;10.62;78.15
56831;BME280;42713;42.676;23.352;2024-03-02T09:52:50;94279.72;;;10.58;78.21
56831;BME280;42713;42.676;23.352;2024-03-02T09:55:18;94283.66;;;10.61;78.51
56831;BME280;42713;42.676;23.352;2024-03-02T09:57:50;94286.81;;;10.63;79.29
56831;BME280;42713;42.676;23.352;2024-03-02T10:00:17;94278.13;;;10.57;79.89
56831;BME280;42713;42.676;23.352;2024-03-02T10:02:43;94285.19;;;10.56;78.28
56831;BME280;42713;42.676;23.352;2024-03-02T10:05:09;94284.66;;;10.54;78.24
56831;BME280;42713;42.676;23.352;2024-03-02T10:07:34;94274.16;;;10.49;78.37
56831;BME280;42713;42.676;23.352;2024-03-02T10:10:13;94285.44;;;10.55;78.62
56831;BME280;42713;42.676;23.352;2024-03-02T10:13:05;94275.22;;;10.53;79.17
56831;BME280;42713;42.676;23.352;2024-03-02T10:15:49;94272.03;;;10.46;78.78
56831;BME280;42713;42.676;23.352;2024-03-02T10:18:26;94275.47;;;10.52;79.52
56831;BME280;42713;42.676;23.352;2024-03-02T10:20:53;94284.91;;;10.53;79.17
56831;BME280;42713;42.676;23.352;2024-03-02T10:23:19;94283.31;;;10.52;79.65
56831;BME280;42713;42.676;23.352;2024-03-02T10:26:16;94268.28;;;10.37;79.90
56831;BME280;42713;42.676;23.352;2024-03-02T10:29:01;94279.41;;;10.49;79.72
56831;BME280;42713;42.676;23.352;2024-03-02T10:31:28;94280.72;;;10.52;79.60
56831;BME280;42713;42.676;23.352;2024-03-02T10:33:54;94278.09;;;10.52;79.94
56831;BME280;42713;42.676;23.352;2024-03-02T10:36:45;94279.94;;;10.51;79.43
56831;BME280;42713;42.676;23.352;2024-03-02T10:47:09;94262.47;;;10.30;79.37
56831;BME280;42713;42.676;23.352;2024-03-02T10:50:04;94250.63;;;10.22;79.70
56831;BME280;42713;42.676;23.352;2024-03-02T10:55:14;94260.41;;;10.32;79.95
56831;BME280;42713;42.676;23.352;2024-03-02T10:58:25;94257.25;;;10.30;79.81
56831;BME280;42713;42.676;23.352;2024-03-02T11:00:52;94257.53;;;10.33;79.80
56831;BME280;42713;42.676;23.352;2024-03-02T11:03:33;94252.56;;;10.32;79.94
56831;BME280;42713;42.676;23.352;2024-03-02T11:06:19;94238.34;;;10.22;79.82
56831;BME280;42713;42.676;23.352;2024-03-02T11:09:12;94237.56;;;10.22;80.31
56831;BME280;42713;42.676;23.352;2024-03-02T11:12:03;94233.41;;;10.26;79.85
56831;BME280;42713;42.676;23.352;2024-03-02T11:14:52;94243.13;;;10.36;80.06
56831;BME280;42713;42.676;23.352;2024-03-02T11:17:18;94241.91;;;10.38;79.64
56831;BME280;42713;42.676;23.352;2024-03-02T11:20:04;94251.56;;;10.38;79.64
56831;BME280;42713;42.676;23.352;2024-03-02T11:22:30;94248.44;;;10.41;79.58
56831;BME280;42713;42.676;23.352;2024-03-02T11:25:03;94241.81;;;10.33;79.74
56831;BME280;42713;42.676;23.352;2024-03-02T11:33:23;94233.56;;;10.14;79.48
56831;BME280;42713;42.676;23.352;2024-03-02T11:35:50;94235.94;;;10.16;79.42
56831;BME280;42713;42.676;23.352;2024-03-02T11:38:26;94232.03;;;10.18;79.52
56831;BME280;42713;42.676;23.352;2024-03-02T11:41:08;94231.50;;;10.16;80.49
56831;BME280;42713;42.676;23.352;2024-03-02T11:43:41;94223.63;;;10.16;80.52
56831;BME280;42713;42.676;23.352;2024-03-02T11:46:10;94232.84;;;10.24;80.34
56831;BME280;42713;42.676;23.352;2024-03-02T11:48:38;94229.16;;;10.20;80.17
56831;BME280;42713;42.676;23.352;2024-03-02T11:51:04;94242.28;;;10.25;80.19
56831;BME280;42713;42.676;23.352;2024-03-02T11:53:40;94253.03;;;10.28;79.75
56831;BME280;42713;42.676;23.352;2024-03-02T11:56:06;94243.34;;;10.24;79.98
56831;BME280;42713;42.676;23.352;2024-03-02T11:58:37;94231.25;;;10.18;80.61
56831;BME280;42713;42.676;23.352;2024-03-02T12:01:05;94245.97;;;10.29;80.18
56831;BME280;42713;42.676;23.352;2024-03-02T12:03:34;94251.25;;;10.34;80.86
56831;BME280;42713;42.676;23.352;2024-03-02T12:06:00;94228.16;;;10.26;80.80
56831;BME280;42713;42.676;23.352;2024-03-02T12:08:42;94239.28;;;10.38;80.76
56831;BME280;42713;42.676;23.352;2024-03-02T12:11:13;94244.81;;;10.47;80.39
56831;BME280;42713;42.676;23.352;2024-03-02T12:14:06;94254.03;;;10.60;80.33
56831;BME280;42713;42.676;23.352;2024-03-02T12:29:28;94259.59;;;10.69;79.04
56831;BME280;42713;42.676;23.352;2024-03-02T12:55:22;94256.59;;;10.98;75.72
56831;BME280;42713;42.676;23.352;2024-03-02T12:58:52;94247.94;;;10.92;76.32
56831;BME280;42713;42.676;23.352;2024-03-02T13:03:00;94234.00;;;10.86;76.98
56831;BME280;42713;42.676;23.352;2024-03-02T13:11:06;94245.31;;;10.97;76.63
56831;BME280;42713;42.676;23.352;2024-03-02T13:17:13;94257.91;;;11.00;75.66
56831;BME280;42713;42.676;23.352;2024-03-02T13:22:25;94245.03;;;10.88;76.34
56831;BME280;42713;42.676;23.352;2024-03-02T13:24:51;94247.66;;;10.94;76.92
56831;BME280;42713;42.676;23.352;2024-03-02T13:31:45;94265.22;;;10.98;75.30
56831;BME280;42713;42.676;23.352;2024-03-02T13:44:54;94243.84;;;10.58;75.54
56831;BME280;42713;42.676;23.352;2024-03-02T13:50:36;94247.75;;;10.56;75.73
56831;BME280;42713;42.676;23.352;2024-03-02T13:53:13;94252.44;;;10.54;74.56
56831;BME280;42713;42.676;23.352;2024-03-02T13:58:31;94274.78;;;10.67;76.05
56831;BME280;42713;42.676;23.352;2024-03-02T14:01:25;94266.63;;;10.58;77.80
56831;BME280;42713;42.676;23.352;2024-03-02T14:04:19;94250.88;;;10.53;77.52
56831;BME280;42713;42.676;23.352;2024-03-02T14:07:13;94258.78;;;10.58;77.62
56831;BME280;42713;42.676;23.352;2024-03-02T14:10:02;94257.97;;;10.57;75.95
56831;BME280;42713;42.676;23.352;2024-03-02T14:12:29;94274.50;;;10.63;75.77
56831;BME280;42713;42.676;23.352;2024-03-02T14:15:10;94272.38;;;10.60;75.91
56831;BME280;42713;42.676;23.352;2024-03-02T14:27:44;94263.41;;;10.46;75.72
56831;BME280;42713;42.676;23.352;2024-03-02T14:30:12;94294.16;;;10.66;75.92
56831;BME280;42713;42.676;23.352;2024-03-02T14:32:38;94290.97;;;10.58;75.01
56831;BME280;42713;42.676;23.352;2024-03-02T14:35:07;94272.56;;;10.48;74.55
56831;BME280;42713;42.676;23.352;2024-03-02T14:37:47;94273.06;;;10.45;75.39
56831;BME280;42713;42.676;23.352;2024-03-02T14:40:16;94263.13;;;10.47;75.18
56831;BME280;42713;42.676;23.352;2024-03-02T14:42:45;94260.31;;;10.54;74.63
56831;BME280;42713;42.676;23.352;2024-03-02T14:45:33;94261.91;;;10.60;75.33
56831;BME280;42713;42.676;23.352;2024-03-02T14:48:06;94265.13;;;10.72;76.43
56831;BME280;42713;42.676;23.352;2024-03-02T14:51:10;94284.34;;;10.94;75.65
56831;BME280;42713;42.676;23.352;2024-03-02T14:54:03;94263.38;;;10.88;75.66
56831;BME280;42713;42.676;23.352;2024-03-02T14:56:56;94296.22;;;11.12;74.15
56831;BME280;42713;42.676;23.352;2024-03-02T14:59:46;94270.19;;;10.95;73.63